Accueil
METAR-TAF:

METAR-TAF

Aéroports :

Dibrugarh, Inde

latitude: 27-29N, longitude: 095-01E, altitude: 110 m

Observation

Le bulletin a été fait il y a 29 minutes, à 10:30 UTC
Vent 3 kt de est/sud-est
Température 28°C
Humidité 35%
Pression 1010 hPa
Visibilité: 6000 m
Quelques nuages à une hauteur de 2000 ft

METAR: VEMN 291030Z 11003KT 6000 FEW020 28/11 Q1010 NOSIG

Heure: 16:29 (10:59 UTC)

Prévision

Le bulletin a été fait il y a 23 heures et 59 minutes, à 11:00 UTC
Prévision valable du 29 à 09 UTC au 29 à 18 UTC
Vent 5 kt de nord/nord-est
Visibilité: 6000 m
Quelques nuages à une hauteur de 2500 ft
Evoluant progressivement
du 29 à 12 UTC au 29 à 15 UTC
Visibilité: 4000 m
Quelques nuages à une hauteur de 10000 ft
brume sèche
Evoluant progressivement
entre 29 et /1 UTC
Visibilité: 3000 m
brume sèche

TAF: VEMN 291100Z 2909/2918 02005KT 6000 FEW025 BECMG 2912/2915 4000 HZ FEW100 BECMG 29/15/2918 3000 HZ

Observations et prévisions météorologiques de plus de 4000 aéroports (messages METAR et TAF).

Les stations disponibles sont représentées par des disques jaunes et rouges sur la carte.

Passer la souris dessus pour voir le nom de la station.

Cliquer dessus pour voir les observations et prévisions météorologiques.

Pour changer de carte: cliquez sur les boutons verts avec une croix noire pour zoomer, sur le bouton vert avec un tiret pour effectuer un zoom arrière, ou sur les flèches vertes pour les cartes adjacentes.


METAR-TAF: